createdAt,value
2023-03-01T00:02:51.000Z,21.3
2023-03-01T00:07:46.000Z,19.3
2023-03-01T00:12:40.000Z,18.6
2023-03-01T00:17:34.000Z,20.1
2023-03-01T00:22:29.000Z,18.4
2023-03-01T00:27:23.000Z,17.4
2023-03-01T00:32:16.000Z,16.2
2023-03-01T00:37:10.000Z,18.8
2023-03-01T00:42:04.000Z,18.8
2023-03-01T00:46:58.000Z,17.2
2023-03-01T00:51:51.000Z,20.8
2023-03-01T00:56:45.000Z,20.2
2023-03-01T01:01:39.000Z,18.6
2023-03-01T01:06:32.000Z,16.7
2023-03-01T01:11:27.000Z,20.4
2023-03-01T01:16:19.000Z,22.1
2023-03-01T01:21:12.000Z,18.5
2023-03-01T01:26:06.000Z,19.9
2023-03-01T01:30:59.000Z,22.6
2023-03-01T01:35:52.000Z,21.8
2023-03-01T01:40:45.000Z,22.5
2023-03-01T01:45:39.000Z,22.4
2023-03-01T01:50:33.000Z,21.1
2023-03-01T01:55:27.000Z,26.2
2023-03-01T02:00:21.000Z,21.6
2023-03-01T02:05:14.000Z,19.4
2023-03-01T02:10:09.000Z,23.1
2023-03-01T02:15:03.000Z,21.3
2023-03-01T02:19:57.000Z,23.9
2023-03-01T02:24:49.000Z,22.8
2023-03-01T02:29:42.000Z,23.7
2023-03-01T02:34:37.000Z,24.7
2023-03-01T02:39:30.000Z,24.5
2023-03-01T02:44:24.000Z,21.8
2023-03-01T02:49:18.000Z,27.7
2023-03-01T02:54:12.000Z,23.5
2023-03-01T02:59:07.000Z,26.9
2023-03-01T03:04:06.000Z,24.8
2023-03-01T03:08:55.000Z,26.8
2023-03-01T03:13:49.000Z,26
2023-03-01T03:18:43.000Z,26.5
2023-03-01T03:23:35.000Z,24.2
2023-03-01T03:28:29.000Z,23.1
2023-03-01T03:33:23.000Z,24.9
2023-03-01T03:38:16.000Z,24
2023-03-01T03:43:10.000Z,24.1
2023-03-01T03:48:03.000Z,25.9
2023-03-01T03:52:58.000Z,25.6
2023-03-01T03:57:52.000Z,25.6
2023-03-01T04:02:43.000Z,28.2
2023-03-01T04:07:38.000Z,28.9
2023-03-01T04:12:31.000Z,28.8
2023-03-01T04:17:25.000Z,24.3
2023-03-01T04:22:19.000Z,23.5
2023-03-01T04:27:13.000Z,26.6
2023-03-01T04:32:07.000Z,26.6
2023-03-01T04:37:01.000Z,25.6
2023-03-01T04:41:55.000Z,25.6
2023-03-01T04:46:48.000Z,28.7
2023-03-01T04:51:43.000Z,28.8
2023-03-01T04:56:37.000Z,31
2023-03-01T05:01:31.000Z,26.5
2023-03-01T05:06:26.000Z,30.5
2023-03-01T05:11:20.000Z,28
2023-03-01T05:16:17.000Z,28.4
2023-03-01T05:21:07.000Z,29.3
2023-03-01T05:26:01.000Z,29.9
2023-03-01T05:30:55.000Z,34.7
2023-03-01T05:35:49.000Z,35.1
2023-03-01T05:40:43.000Z,41.5
2023-03-01T05:45:37.000Z,36.8
2023-03-01T05:50:31.000Z,31.9
2023-03-01T05:55:25.000Z,38.1
2023-03-01T06:00:19.000Z,32.1
2023-03-01T06:05:13.000Z,34.4
2023-03-01T06:10:07.000Z,32.9
2023-03-01T06:15:02.000Z,34.2
2023-03-01T06:19:56.000Z,34.1
2023-03-01T06:24:50.000Z,33.9
2023-03-01T06:29:45.000Z,38.3
2023-03-01T06:34:39.000Z,36.2
2023-03-01T06:39:33.000Z,39.7
2023-03-01T06:44:27.000Z,48.1
2023-03-01T06:49:22.000Z,41.1
2023-03-01T06:54:16.000Z,34.6
2023-03-01T06:59:10.000Z,37.3
2023-03-01T07:04:04.000Z,42.2
2023-03-01T07:08:58.000Z,35.2
2023-03-01T07:13:52.000Z,37.5
2023-03-01T07:18:47.000Z,44.8
2023-03-01T07:23:41.000Z,38.8
2023-03-01T07:28:35.000Z,39.8
2023-03-01T07:33:30.000Z,41.5
2023-03-01T07:38:24.000Z,41.7
2023-03-01T07:43:19.000Z,41.1
2023-03-01T07:48:12.000Z,32.5
2023-03-01T07:53:07.000Z,36.3
2023-03-01T07:58:00.000Z,28.8
2023-03-01T08:02:55.000Z,29.5
2023-03-01T08:07:49.000Z,30.4
2023-03-01T08:12:43.000Z,35
2023-03-01T08:17:37.000Z,31.1
2023-03-01T08:22:32.000Z,30.1
2023-03-01T08:27:24.000Z,33.4
2023-03-01T08:32:19.000Z,34.1
2023-03-01T08:37:13.000Z,23.9
2023-03-01T08:42:07.000Z,19.5
2023-03-01T08:47:02.000Z,21.8
2023-03-01T08:51:56.000Z,19.6
2023-03-01T08:56:50.000Z,22.1
2023-03-01T09:01:43.000Z,19.4
2023-03-01T09:06:36.000Z,24.1
2023-03-01T09:11:31.000Z,21.4
2023-03-01T09:16:27.000Z,17.7
2023-03-01T09:21:23.000Z,17.9
2023-03-01T09:26:18.000Z,17.1
2023-03-01T09:31:12.000Z,20.5
2023-03-01T09:36:07.000Z,15
2023-03-01T09:41:02.000Z,15
2023-03-01T09:45:56.000Z,16.3
2023-03-01T09:50:51.000Z,15.6
2023-03-01T09:55:45.000Z,14.5
2023-03-01T10:00:39.000Z,13.3
2023-03-01T10:05:34.000Z,15.7
2023-03-01T10:10:29.000Z,17.2
2023-03-01T10:15:23.000Z,14.3
2023-03-01T10:20:18.000Z,15.8
2023-03-01T10:25:12.000Z,17.2
2023-03-01T10:30:07.000Z,13.3
2023-03-01T10:35:02.000Z,14.9
2023-03-01T10:39:56.000Z,14.7
2023-03-01T10:44:50.000Z,13.3
2023-03-01T10:49:45.000Z,12.8
2023-03-01T10:54:40.000Z,12.4
2023-03-01T10:59:34.000Z,16.1
2023-03-01T11:04:29.000Z,13.5
2023-03-01T11:09:23.000Z,12.6
2023-03-01T11:14:17.000Z,14.7
2023-03-01T11:19:12.000Z,14.2
2023-03-01T11:24:10.000Z,11.5
2023-03-01T11:29:01.000Z,12.3
2023-03-01T11:33:58.000Z,14.3
2023-03-01T11:38:49.000Z,11.4
2023-03-01T11:43:41.000Z,11.7
2023-03-01T11:48:36.000Z,10.8
2023-03-01T11:53:30.000Z,11.9
2023-03-01T11:58:23.000Z,13.2
2023-03-01T12:03:18.000Z,12.4
2023-03-01T12:08:13.000Z,13.5
2023-03-01T12:13:07.000Z,9.8
2023-03-01T12:18:02.000Z,11.3
2023-03-01T12:23:00.000Z,11.4
2023-03-01T12:27:50.000Z,9.4
2023-03-01T12:32:44.000Z,9.5
2023-03-01T12:37:38.000Z,10
2023-03-01T12:42:33.000Z,9.2
2023-03-01T12:47:28.000Z,9.2
2023-03-01T12:52:19.000Z,11.8
2023-03-01T12:57:14.000Z,8.6
2023-03-01T13:02:08.000Z,8.7
2023-03-01T13:07:03.000Z,9.9
2023-03-01T13:11:57.000Z,9.4
2023-03-01T13:16:52.000Z,8.6
2023-03-01T13:21:46.000Z,8.1
2023-03-01T13:26:41.000Z,8.4
2023-03-01T13:31:35.000Z,10
2023-03-01T13:36:29.000Z,8
2023-03-01T13:41:24.000Z,8.7
2023-03-01T13:46:16.000Z,7.4
2023-03-01T13:51:11.000Z,8.2
2023-03-01T13:56:06.000Z,8.4
2023-03-01T14:01:00.000Z,7.9
2023-03-01T14:05:54.000Z,7.1
2023-03-01T14:10:46.000Z,6.9
2023-03-01T14:15:40.000Z,7.8
2023-03-01T14:20:34.000Z,6.8
2023-03-01T14:25:29.000Z,7.5
2023-03-01T14:30:23.000Z,11.2
2023-03-01T14:35:17.000Z,5.7
2023-03-01T14:40:15.000Z,7.9
2023-03-01T14:45:06.000Z,6.8
2023-03-01T14:50:00.000Z,8.9
2023-03-01T14:54:52.000Z,9
2023-03-01T14:59:44.000Z,8
2023-03-01T15:04:39.000Z,7.7
2023-03-01T15:09:33.000Z,5.6
2023-03-01T15:14:27.000Z,5.7
2023-03-01T15:19:21.000Z,7.8
2023-03-01T15:24:14.000Z,8
2023-03-01T15:29:09.000Z,7.9
2023-03-01T15:34:03.000Z,8.5
2023-03-01T15:38:57.000Z,7.2
2023-03-01T15:43:52.000Z,7.6
2023-03-01T15:48:45.000Z,7.8
2023-03-01T15:53:39.000Z,7.3
2023-03-01T15:58:33.000Z,8.5
2023-03-01T16:03:27.000Z,10.2
2023-03-01T16:08:22.000Z,7.4
2023-03-01T16:13:15.000Z,9.1
2023-03-01T16:18:09.000Z,8.5
2023-03-01T16:23:02.000Z,11.3
2023-03-01T16:27:57.000Z,9
2023-03-01T16:32:50.000Z,10.8
2023-03-01T16:37:45.000Z,8.3
2023-03-01T16:42:39.000Z,9.3
2023-03-01T16:47:32.000Z,11.2
2023-03-01T16:52:25.000Z,10
2023-03-01T16:57:19.000Z,7.5
2023-03-01T17:02:12.000Z,7.4
2023-03-01T17:07:06.000Z,8.6
2023-03-01T17:11:59.000Z,8.3
2023-03-01T17:16:53.000Z,9.2
2023-03-01T17:21:47.000Z,11.1
2023-03-01T17:26:42.000Z,10.1
2023-03-01T17:31:36.000Z,12.2
2023-03-01T17:36:30.000Z,12.1
2023-03-01T17:41:24.000Z,12.3
2023-03-01T17:46:21.000Z,12
2023-03-01T17:51:10.000Z,10.6
2023-03-01T17:56:02.000Z,9
2023-03-01T18:00:56.000Z,18.3
2023-03-01T18:05:49.000Z,19.2
2023-03-01T18:10:45.000Z,30.2
2023-03-01T18:15:38.000Z,31.2
2023-03-01T18:20:32.000Z,19.5
2023-03-01T18:25:27.000Z,13.5
2023-03-01T18:30:21.000Z,16.2
2023-03-01T18:35:15.000Z,13.7
2023-03-01T18:40:10.000Z,15.6
2023-03-01T18:45:02.000Z,16.5
2023-03-01T18:49:57.000Z,14.1
2023-03-01T18:54:51.000Z,16.8
2023-03-01T18:59:45.000Z,12.6
2023-03-01T19:04:40.000Z,10
2023-03-01T19:09:33.000Z,15.5
2023-03-01T19:14:28.000Z,13
2023-03-01T19:19:21.000Z,38.7
2023-03-01T19:24:15.000Z,15.5
2023-03-01T19:29:09.000Z,16.1
2023-03-01T19:34:03.000Z,12
2023-03-01T19:38:57.000Z,10
2023-03-01T19:43:51.000Z,12.3
2023-03-01T19:48:46.000Z,12.6
2023-03-01T19:53:40.000Z,13.1
2023-03-01T19:58:35.000Z,10.6
2023-03-01T20:03:28.000Z,10.5
2023-03-01T20:08:22.000Z,10.6
2023-03-01T20:13:14.000Z,8.7
2023-03-01T20:18:08.000Z,10.4
2023-03-01T20:23:02.000Z,9.3
2023-03-01T20:27:56.000Z,10.5
2023-03-01T20:32:50.000Z,11.6
2023-03-01T20:37:44.000Z,10.4
2023-03-01T20:42:37.000Z,9.9
2023-03-01T20:47:31.000Z,9.3
2023-03-01T20:52:25.000Z,11.1
2023-03-01T20:57:19.000Z,10.1
2023-03-01T21:02:12.000Z,13.6
2023-03-01T21:07:06.000Z,13.2
2023-03-01T21:12:00.000Z,10.6
2023-03-01T21:16:54.000Z,11.3
2023-03-01T21:21:48.000Z,10.7
2023-03-01T21:26:41.000Z,13.6
2023-03-01T21:31:36.000Z,9
2023-03-01T21:36:30.000Z,11.3
2023-03-01T21:41:24.000Z,10.9
2023-03-01T21:46:19.000Z,10.8
2023-03-01T21:51:13.000Z,12
2023-03-01T21:56:07.000Z,11.7
2023-03-01T22:00:59.000Z,11.7
2023-03-01T22:05:53.000Z,11.3
2023-03-01T22:10:47.000Z,11.8
2023-03-01T22:15:41.000Z,9.9
2023-03-01T22:20:35.000Z,11.2
2023-03-01T22:25:30.000Z,10.2
2023-03-01T22:30:24.000Z,10.5
2023-03-01T22:35:18.000Z,15
2023-03-01T22:40:12.000Z,11.9
2023-03-01T22:45:06.000Z,10.6
2023-03-01T22:50:01.000Z,12.1
2023-03-01T22:54:55.000Z,12.6
2023-03-01T22:59:48.000Z,14.6
2023-03-01T23:04:43.000Z,12.9
2023-03-01T23:09:37.000Z,14.2
2023-03-01T23:14:31.000Z,12.5
2023-03-01T23:19:25.000Z,13.5
2023-03-01T23:24:19.000Z,14.2
2023-03-01T23:29:14.000Z,13
2023-03-01T23:34:08.000Z,13.7
2023-03-01T23:39:00.000Z,12.1
2023-03-01T23:43:54.000Z,14.8
2023-03-01T23:48:48.000Z,14.6
2023-03-01T23:53:42.000Z,15.9
2023-03-01T23:58:37.000Z,14.6
